SBOSBO BFS / EGAA
Speedbird OnlineSpeedbird Online BFS / EGAA

Belfast International Airport
21:18 8.1°C

Location Belfast, United Kingdom
Latitude: 54.6575012207
Longitude: -6.2158298492399995
Local Time 21:18 on 20 Apr 2024
UTC +1 hours (Europe/London)
METAR EGAA 201950Z AUTO 12004KT 9999 NCD 08/04 Q1030
TAF TAF EGAA 201651Z 2018/2118 VRB03KT 9999 FEW030 PROB30 2100/2106 5000 BR
Weather As Of 20 Apr 2024 21:18
Description Broken clouds
Wind 7 km/h from South-East (120°)
Cloud Cover 64%
Precipitation Rain: none, Snow: none
Sunrise 06:09
Sunset 20:37
Rotations During the last 90 days there were
1 flights to LHR
Web Airport Website | Wikipedia
Codes IATA: BFS
ICAO: EGAA
Altitude 82 Meter / 268 Feet
Distance 549 KM / 341 Miles
from London.
Runways
RunwayLength (m)Surface
072780Asphalt
171891Asphalt
252780Asphalt
351891Asphalt
Radio
TypeDescriptionFrequency
APPAPP128.5
ATISATIS128.2
GNDGND121.75
ILS 17110.9
ILS 25109.9
OPSOPS26.48
RDRDIRECTOR120.9
TWRTWR118.3
Live ATC



Support Speedbird Online

© 2017-2024 Speedbird Online